This is the latest recevied weather packets stored in our database for station/object YO6LRV-3. If no packets are shown the sender has not sent any weather packets the latest 10 day(s).
| Time | Temp. | Humidity | Pressure | Rain* | Wind** | Luminosity | Snow |
|---|---|---|---|---|---|---|---|
| 1788426749 | 20° C | 62% | 1020.3 hPa | - | - | - | - |
| 1788406948 | 16.67° C | 61% | 1019.8 hPa | - | - | - | - |
| 1788406048 | 16.67° C | 61% | 1019.7 hPa | - | - | - | - |
| 1788405148 | 16.67° C | 61% | 1019.7 hPa | - | - | - | - |
| 1788404248 | 16.67° C | 60% | 1019.7 hPa | - | - | - | - |
| 1788376348 | 21.67° C | 51% | 1019.7 hPa | - | - | - | - |
| 1788373648 | 22.22° C | 48% | 1019.4 hPa | - | - | - | - |
| 1788372748 | 22.22° C | 50% | 1018.9 hPa | - | - | - | - |
| 1788368247 | 23.33° C | 52% | 1018.6 hPa | - | - | - | - |
| 1788366447 | 23.89° C | 52% | 1018.7 hPa | - | - | - | - |
| 1788365547 | 23.89° C | 52% | 1018.8 hPa | - | - | - | - |
| 1788364647 | 23.89° C | 52% | 1018.8 hPa | - | - | - | - |
| 1788359246 | 25.56° C | 54% | 1019.4 hPa | - | - | - | - |
| 1788357445 | 25.56° C | 53% | 1019.5 hPa | - | - | - | - |
| 1788300744 | 20° C | 84% | 1019.7 hPa | - | - | - | - |
| 1788299844 | 20.56° C | 85% | 1019.8 hPa | - | - | - | - |
| 1788298044 | 20.56° C | 89% | 1019.7 hPa | - | - | - | - |
| 1788297144 | 21.11° C | 90% | 1019.6 hPa | - | - | - | - |
| 1788296244 | 21.11° C | 92% | 1019.6 hPa | - | - | - | - |
| 1788295345 | 21.67° C | 89% | 1019.6 hPa | - | - | - | - |
| 1788293543 | 21.67° C | 85% | 1019.5 hPa | - | - | - | - |
| 1788290843 | 22.22° C | 82% | 1018.9 hPa | - | - | - | - |
| 1788289945 | 22.22° C | 80% | 1018.9 hPa | - | - | - | - |
| 1788289045 | 22.22° C | 76% | 1019 hPa | - | - | - | - |
| 1788287245 | 22.78° C | 75% | 1018.8 hPa | - | - | - | - |
* Rain since midnight (hover to see other rain measurements)
** Current wind speed in m/s (hover to see current wind gust speed)